Time;durP1;ratioP1;P1;durP2;ratioP2;P2;SDS_P1;SDS_P2;PMS_P1;PMS_P2;Temp;Humidity;BMP_temperature;BMP_pressure;BME280_temperature;BME280_humidity;BME280_pressure;Samples;Min_cycle;Max_cycle;Signal;HPM_P1;HPM_P2
2021/08/03 00:02:51;;;;;;;10.95;4.55;;;14.60;99.90;;;;;;10570319;27;20047;-67
2021/08/03 00:08:08;;;;;;;8.70;5.03;;;14.60;99.90;;;;;;10561210;27;20113;-66
2021/08/03 00:13:10;;;;;;;7.60;4.88;;;14.60;99.90;;;;;;10566003;27;20043;-67
2021/08/03 00:18:14;;;;;;;10.18;5.20;;;14.70;99.90;;;;;;10548806;27;20079;-66
2021/08/03 00:23:16;;;;;;;10.32;5.28;;;14.70;99.90;;;;;;10517951;28;20068;-67
2021/08/03 00:28:19;;;;;;;10.55;5.40;;;14.60;99.90;;;;;;10521124;28;20048;-67
2021/08/03 00:33:20;;;;;;;9.00;5.00;;;14.60;99.90;;;;;;10522667;28;20056;-67
2021/08/03 00:38:22;;;;;;;8.02;4.63;;;14.60;99.90;;;;;;10524569;27;20036;-67
2021/08/03 00:43:24;;;;;;;8.65;4.70;;;14.60;99.90;;;;;;10531387;28;20478;-67
2021/08/03 00:48:25;;;;;;;10.95;4.88;;;14.60;99.90;;;;;;10526654;28;20109;-67
2021/08/03 00:53:27;;;;;;;8.30;4.82;;;14.50;99.90;;;;;;10525498;28;20093;-67
2021/08/03 00:58:29;;;;;;;10.48;5.00;;;14.60;99.90;;;;;;10526130;28;20040;-67
2021/08/03 01:03:32;;;;;;;7.82;4.40;;;14.60;99.90;;;;;;10512026;28;20048;-67
2021/08/03 01:09:04;;;;;;;8.82;4.75;;;14.60;99.90;;;;;;10518221;28;20578;-66
2021/08/03 01:14:17;;;;;;;7.78;4.70;;;14.60;99.90;;;;;;10467557;28;20043;-66
2021/08/03 01:19:26;;;;;;;7.05;4.45;;;14.50;99.90;;;;;;10556091;27;20055;-66
2021/08/03 01:24:48;;;;;;;11.35;4.57;;;14.60;99.90;;;;;;10554461;27;20074;-66
2021/08/03 01:29:50;;;;;;;10.93;5.25;;;14.60;99.90;;;;;;10510581;27;20113;-66
2021/08/03 01:34:53;;;;;;;10.77;5.47;;;14.50;99.90;;;;;;10565121;27;20051;-67
2021/08/03 01:39:57;;;;;;;8.73;4.82;;;14.50;99.90;;;;;;10565333;27;20051;-67
2021/08/03 01:45:00;;;;;;;8.00;4.75;;;14.60;99.90;;;;;;10566905;27;20068;-67
2021/08/03 01:50:04;;;;;;;10.88;5.50;;;14.70;99.90;;;;;;10538158;27;20039;-67
2021/08/03 01:55:09;;;;;;;13.55;5.90;;;14.70;99.90;;;;;;10559803;27;20100;-67
2021/08/03 02:00:12;;;;;;;11.60;5.72;;;14.50;99.90;;;;;;10552838;27;20437;-67
2021/08/03 02:05:15;;;;;;;12.80;5.38;;;14.50;99.90;;;;;;10562222;27;20439;-66
2021/08/03 02:10:19;;;;;;;11.98;5.72;;;14.60;99.90;;;;;;10559567;28;20051;-66
2021/08/03 02:15:21;;;;;;;9.30;5.00;;;14.60;99.90;;;;;;10561767;27;20096;-67
2021/08/03 02:20:23;;;;;;;10.32;5.25;;;14.70;99.90;;;;;;10530822;27;20063;-67
2021/08/03 02:25:27;;;;;;;9.20;5.95;;;14.70;99.90;;;;;;10531772;27;20048;-67
2021/08/03 02:30:29;;;;;;;10.75;5.35;;;14.60;99.90;;;;;;10529206;28;20048;-67
2021/08/03 02:35:45;;;;;;;11.20;5.68;;;14.60;99.90;;;;;;10537844;28;20122;-67
2021/08/03 02:40:48;;;;;;;13.47;5.60;;;14.70;99.90;;;;;;10487823;28;20051;-67
2021/08/03 02:45:51;;;;;;;11.60;5.82;;;14.80;99.90;;;;;;10533618;27;20460;-67
2021/08/03 02:50:53;;;;;;;9.88;5.15;;;14.60;99.90;;;;;;10521153;28;20059;-67
2021/08/03 02:56:09;;;;;;;18.27;6.03;;;14.60;99.90;;;;;;10514097;28;20133;-67
2021/08/03 03:01:13;;;;;;;12.65;5.78;;;14.50;99.90;;;;;;10523247;28;20482;-67
2021/08/03 03:06:19;;;;;;;14.65;6.38;;;14.50;99.90;;;;;;10529469;28;20052;-67
2021/08/03 03:11:25;;;;;;;15.38;6.38;;;14.60;99.90;;;;;;10528851;28;20057;-67
2021/08/03 03:16:32;;;;;;;10.65;5.88;;;14.50;99.90;;;;;;10529381;27;20078;-67
2021/08/03 03:21:35;;;;;;;10.65;6.07;;;14.60;99.90;;;;;;10572749;27;20166;-67
2021/08/03 03:26:38;;;;;;;10.77;5.95;;;14.60;99.90;;;;;;10547839;27;20150;-67
2021/08/03 03:31:41;;;;;;;9.15;6.30;;;14.70;99.90;;;;;;10569670;27;20082;-67
2021/08/03 03:36:45;;;;;;;10.90;6.30;;;14.70;99.90;;;;;;10567052;27;20361;-67
2021/08/03 03:41:51;;;;;;;13.85;6.03;;;14.80;99.90;;;;;;10575161;27;20046;-67
2021/08/03 03:46:58;;;;;;;11.57;5.85;;;14.90;99.90;;;;;;10542778;27;20132;-67
2021/08/03 03:52:01;;;;;;;23.95;8.23;;;14.90;99.90;;;;;;10566065;27;20047;-67
2021/08/03 03:57:08;;;;;;;9.65;5.22;;;15.00;99.90;;;;;;10565572;27;20462;-67
2021/08/03 04:02:18;;;;;;;11.27;5.32;;;15.10;99.90;;;;;;10518938;27;20047;-68
2021/08/03 04:07:20;;;;;;;15.02;6.15;;;15.10;99.90;;;;;;10568628;27;20047;-68
2021/08/03 04:12:21;;;;;;;11.68;5.35;;;15.10;99.90;;;;;;10566662;27;20051;-68
2021/08/03 04:17:23;;;;;;;6.95;4.40;;;15.10;99.90;;;;;;10533353;27;20047;-68
2021/08/03 04:22:26;;;;;;;9.05;4.80;;;15.10;99.90;;;;;;10519557;27;20109;-68
2021/08/03 04:27:28;;;;;;;9.23;4.85;;;15.10;99.90;;;;;;10519192;28;20052;-68
2021/08/03 04:32:29;;;;;;;14.00;6.22;;;15.20;99.90;;;;;;10530714;28;20101;-68
2021/08/03 04:37:42;;;;;;;11.63;5.38;;;15.20;99.90;;;;;;10519839;28;20040;-68
2021/08/03 04:42:44;;;;;;;14.38;7.38;;;15.30;99.90;;;;;;10524334;28;20043;-67
2021/08/03 04:47:48;;;;;;;14.45;5.55;;;15.30;99.90;;;;;;10524746;28;20104;-67
2021/08/03 04:52:50;;;;;;;16.83;6.38;;;15.30;99.90;;;;;;10520736;28;20117;-68
2021/08/03 04:57:52;;;;;;;13.30;6.10;;;15.30;99.90;;;;;;10519711;28;20047;-68
2021/08/03 05:02:54;;;;;;;12.38;5.32;;;15.30;99.90;;;;;;10524523;28;20786;-68
2021/08/03 05:08:00;;;;;;;12.15;4.57;;;15.20;99.90;;;;;;10531567;28;20067;-67
2021/08/03 05:13:02;;;;;;;5.77;3.70;;;15.10;99.90;;;;;;10526954;27;20055;-67
2021/08/03 05:18:04;;;;;;;5.82;3.70;;;15.10;99.90;;;;;;10536994;27;20036;-68
2021/08/03 05:23:05;;;;;;;6.45;3.42;;;15.10;99.90;;;;;;10554134;27;20052;-68
2021/08/03 05:28:08;;;;;;;7.03;3.40;;;15.20;99.90;;;;;;10559135;27;20048;-68
2021/08/03 05:33:11;;;;;;;7.50;3.78;;;15.30;99.90;;;;;;10555118;27;20677;-67
2021/08/03 05:38:12;;;;;;;8.98;4.25;;;15.40;99.90;;;;;;10568376;27;20052;-68
2021/08/03 05:43:14;;;;;;;9.35;5.07;;;15.50;99.90;;;;;;10567551;27;20092;-68
2021/08/03 05:48:15;;;;;;;6.15;3.78;;;15.50;99.90;;;;;;10568474;27;20085;-67
2021/08/03 05:53:17;;;;;;;10.27;3.95;;;15.50;99.90;;;;;;10563430;27;20054;-67
2021/08/03 05:58:19;;;;;;;10.70;4.70;;;15.50;99.90;;;;;;10559397;27;20139;-67
2021/08/03 06:03:20;;;;;;;8.48;4.40;;;15.40;99.90;;;;;;10564930;27;20056;-67
2021/08/03 06:08:25;;;;;;;5.68;3.78;;;15.40;99.90;;;;;;10555337;27;20130;-67
2021/08/03 06:13:28;;;;;;;7.65;4.13;;;15.60;99.90;;;;;;10566370;28;20105;-67
2021/08/03 06:18:37;;;;;;;8.85;4.30;;;15.70;99.90;;;;;;10557147;28;20424;-68
2021/08/03 06:23:41;;;;;;;6.18;4.03;;;15.70;99.90;;;;;;10566282;28;20096;-67
2021/08/03 06:28:47;;;;;;;9.07;5.00;;;15.70;99.90;;;;;;10548761;28;20108;-67
2021/08/03 06:33:48;;;;;;;8.20;4.40;;;16.00;99.90;;;;;;10570206;28;20108;-68
2021/08/03 06:38:50;;;;;;;6.70;4.18;;;16.10;99.90;;;;;;10567749;28;20135;-67
2021/08/03 06:44:04;;;;;;;8.48;4.53;;;16.10;99.90;;;;;;10566864;28;20048;-67
2021/08/03 06:49:08;;;;;;;7.55;5.25;;;16.30;99.90;;;;;;10561164;28;20112;-67
2021/08/03 06:54:11;;;;;;;10.85;5.90;;;16.40;99.90;;;;;;10548563;28;20059;-67
2021/08/03 06:59:25;;;;;;;8.82;5.78;;;16.40;99.90;;;;;;10558830;27;20047;-67
2021/08/03 07:04:57;;;;;;;6.18;4.75;;;16.60;99.90;;;;;;10564445;27;20047;-67
2021/08/03 07:10:02;;;;;;;8.05;5.43;;;16.80;99.90;;;;;;10509507;27;20047;-67
2021/08/03 07:15:04;;;;;;;9.02;5.35;;;16.70;99.90;;;;;;10574537;27;20472;-67
2021/08/03 07:20:08;;;;;;;10.43;5.30;;;16.70;99.90;;;;;;10547197;27;20067;-67
2021/08/03 07:25:11;;;;;;;6.72;5.15;;;16.40;99.90;;;;;;10571054;27;20375;-65
2021/08/03 07:30:12;;;;;;;4.75;3.78;;;16.40;99.90;;;;;;10568795;27;20055;-67
2021/08/03 07:35:14;;;;;;;7.82;5.30;;;17.00;99.90;;;;;;10574390;27;20507;-67
2021/08/03 07:40:16;;;;;;;8.90;4.40;;;17.00;99.90;;;;;;10569780;27;20059;-66
2021/08/03 07:45:17;;;;;;;8.02;4.50;;;17.40;99.90;;;;;;10567233;27;20063;-67
2021/08/03 07:50:19;;;;;;;9.07;5.60;;;17.50;99.90;;;;;;10556149;27;20044;-66
2021/08/03 07:55:21;;;;;;;5.18;4.03;;;17.60;99.90;;;;;;10560388;27;20382;-66
2021/08/03 08:00:23;;;;;;;5.80;4.40;;;17.70;99.90;;;;;;10562664;27;20073;-66
2021/08/03 08:05:24;;;;;;;7.15;5.55;;;17.80;99.90;;;;;;10573962;27;20048;-66
2021/08/03 08:10:26;;;;;;;7.57;4.68;;;17.60;99.90;;;;;;10570178;27;20059;-66
2021/08/03 08:15:28;;;;;;;7.15;5.07;;;17.70;99.90;;;;;;10553011;27;20692;-66
2021/08/03 08:20:30;;;;;;;7.13;5.00;;;17.60;99.90;;;;;;10563908;27;20164;-66
2021/08/03 08:25:31;;;;;;;5.45;4.13;;;17.80;99.90;;;;;;10565511;27;20047;-68
2021/08/03 08:30:35;;;;;;;7.88;3.25;;;18.00;99.90;;;;;;10569182;27;20131;-67
2021/08/03 08:35:37;;;;;;;5.85;3.17;;;18.60;99.90;;;;;;10571727;27;20035;-67
2021/08/03 08:40:41;;;;;;;3.33;2.67;;;18.90;99.90;;;;;;10562880;27;20048;-67
2021/08/03 08:45:43;;;;;;;8.23;3.05;;;18.90;99.90;;;;;;10558602;27;20051;-67
2021/08/03 08:50:45;;;;;;;9.88;4.10;;;18.40;99.90;;;;;;10566800;27;20043;-66
2021/08/03 08:55:46;;;;;;;14.43;8.43;;;17.80;99.90;;;;;;10571131;27;20096;-64
2021/08/03 09:00:48;;;;;;;14.63;9.85;;;16.90;99.90;;;;;;10567450;27;20051;-64
2021/08/03 09:06:01;;;;;;;16.95;11.57;;;16.50;99.90;;;;;;10565465;27;20051;-65
2021/08/03 09:11:21;;;;;;;15.18;11.23;;;16.90;99.90;;;;;;10561785;27;20055;-65
2021/08/03 09:16:25;;;;;;;11.95;10.13;;;17.10;99.90;;;;;;10503164;27;20128;-66
2021/08/03 09:21:29;;;;;;;13.40;10.40;;;17.00;99.90;;;;;;10564365;27;20478;-66
2021/08/03 09:26:49;;;;;;;14.90;9.82;;;17.00;99.90;;;;;;10570102;27;20158;-66
2021/08/03 09:31:56;;;;;;;11.15;8.38;;;17.10;99.90;;;;;;10506003;27;20136;-67
2021/08/03 09:36:59;;;;;;;12.85;7.85;;;17.00;99.90;;;;;;10559673;27;20043;-67
2021/08/03 09:42:03;;;;;;;13.07;8.32;;;17.00;99.90;;;;;;10563121;27;20059;-67
2021/08/03 09:47:05;;;;;;;12.73;9.10;;;17.00;99.90;;;;;;10565154;27;20043;-66
2021/08/03 09:52:09;;;;;;;13.10;7.30;;;16.90;99.90;;;;;;10555364;27;20047;-67
2021/08/03 09:57:26;;;;;;;9.60;6.50;;;16.90;99.90;;;;;;10559557;27;20107;-67
2021/08/03 10:02:28;;;;;;;8.88;7.53;;;16.70;99.90;;;;;;10564555;27;20111;-67
2021/08/03 10:07:30;;;;;;;9.68;5.85;;;17.00;99.90;;;;;;10568216;27;20089;-67
2021/08/03 10:12:32;;;;;;;10.68;5.88;;;17.20;99.90;;;;;;10556808;27;20466;-67
2021/08/03 10:17:34;;;;;;;6.97;4.38;;;17.50;99.90;;;;;;10543681;28;20651;-64
2021/08/03 10:22:44;;;;;;;5.00;3.78;;;17.40;99.90;;;;;;10547179;28;20051;-67
2021/08/03 10:27:51;;;;;;;4.80;3.40;;;17.30;99.90;;;;;;10561553;28;20047;-67
2021/08/03 10:32:53;;;;;;;;;;;17.30;99.90;;;;;;10562549;28;20635;-67
2021/08/03 10:38:00;;;;;;;3.88;3.47;;;17.60;99.90;;;;;;10572674;27;19920;-66
2021/08/03 10:43:53;;;;;;;5.38;4.57;;;17.50;99.90;;;;;;10571280;27;20050;-66
2021/08/03 10:48:55;;;;;;;3.88;2.88;;;17.20;99.90;;;;;;10505148;27;20078;-66
2021/08/03 10:54:16;;;;;;;5.47;2.20;;;17.00;99.90;;;;;;10564557;27;20100;-66
2021/08/03 10:59:38;;;;;;;1.63;1.10;;;16.90;99.90;;;;;;10514853;27;20048;-66
2021/08/03 11:04:42;;;;;;;2.28;1.23;;;16.60;99.90;;;;;;10579576;27;20096;-66
2021/08/03 11:09:44;;;;;;;2.55;0.80;;;16.40;99.90;;;;;;10565000;27;20100;-66
2021/08/03 11:14:46;;;;;;;2.22;1.00;;;16.10;99.90;;;;;;10575621;27;20090;-65
2021/08/03 11:19:47;;;;;;;7.85;2.15;;;16.00;99.90;;;;;;10567409;27;20039;-65
2021/08/03 11:24:50;;;;;;;1.67;1.00;;;15.80;99.90;;;;;;10571920;27;20036;-66
2021/08/03 11:29:52;;;;;;;3.67;1.40;;;15.60;99.90;;;;;;10565038;27;20422;-65
2021/08/03 11:34:56;;;;;;;4.13;1.23;;;15.60;99.90;;;;;;10572395;27;20050;-64
2021/08/03 11:39:59;;;;;;;2.30;1.60;;;15.40;99.90;;;;;;10571455;27;20863;-64
2021/08/03 11:45:21;;;;;;;3.65;1.92;;;15.30;99.90;;;;;;10565822;27;20056;-63
2021/08/03 11:50:34;;;;;;;2.25;0.85;;;15.30;99.90;;;;;;10516472;27;20079;-63
2021/08/03 11:55:38;;;;;;;1.58;0.90;;;15.20;99.90;;;;;;10571521;27;20126;-62
2021/08/03 12:00:40;;;;;;;1.92;0.98;;;15.30;99.90;;;;;;10559379;27;20044;-62
2021/08/03 12:05:41;;;;;;;3.75;1.00;;;15.40;99.90;;;;;;10574256;27;20085;-64
2021/08/03 12:10:49;;;;;;;1.52;0.80;;;15.50;99.90;;;;;;10566993;27;20092;-62
2021/08/03 12:15:55;;;;;;;3.55;1.00;;;15.50;99.90;;;;;;10566137;27;20046;-63
2021/08/03 12:20:57;;;;;;;2.42;0.70;;;16.30;99.90;;;;;;10564368;27;20094;-64
2021/08/03 12:26:00;;;;;;;1.10;0.75;;;16.50;99.90;;;;;;10565769;27;20551;-64
2021/08/03 12:31:27;;;;;;;1.42;1.00;;;17.40;99.90;;;;;;10567911;27;20043;-64
2021/08/03 12:37:05;;;;;;;0.77;0.60;;;17.60;99.90;;;;;;10512330;27;20481;-64
2021/08/03 12:42:22;;;;;;;1.73;0.43;;;18.00;99.90;;;;;;10511428;27;20043;-64
2021/08/03 12:47:26;;;;;;;0.73;0.37;;;18.30;99.90;;;;;;10558186;27;20047;-64
2021/08/03 12:52:28;;;;;;;0.88;0.50;;;18.40;99.90;;;;;;10551308;27;20838;-64
2021/08/03 12:57:47;;;;;;;1.88;0.60;;;18.60;99.90;;;;;;10561530;27;20094;-64
2021/08/03 13:02:49;;;;;;;1.92;0.30;;;18.50;99.90;;;;;;10503703;27;20055;-64
2021/08/03 13:07:52;;;;;;;1.83;0.60;;;18.80;99.90;;;;;;10568372;27;20051;-64
2021/08/03 13:12:54;;;;;;;1.70;0.40;;;19.10;99.90;;;;;;10560107;27;20071;-65
2021/08/03 13:17:55;;;;;;;0.52;0.30;;;19.00;99.90;;;;;;10562890;27;20540;-64
2021/08/03 13:22:57;;;;;;;0.50;0.30;;;19.10;99.90;;;;;;10570779;27;20059;-64
2021/08/03 13:27:59;;;;;;;0.65;0.20;;;19.10;99.90;;;;;;10566222;27;20048;-65
2021/08/03 13:33:00;;;;;;;2.25;0.28;;;19.30;99.90;;;;;;10562629;27;20051;-65
2021/08/03 13:38:04;;;;;;;4.90;1.20;;;19.70;99.90;;;;;;10555473;27;20060;-65
2021/08/03 13:43:06;;;;;;;1.58;0.60;;;19.90;99.90;;;;;;10567663;27;20059;-65
2021/08/03 13:48:08;;;;;;;0.20;0.17;;;19.90;99.90;;;;;;10570757;27;20473;-66
2021/08/03 13:53:10;;;;;;;1.58;0.10;;;20.70;99.90;;;;;;10568432;27;20032;-66
2021/08/03 13:58:11;;;;;;;0.60;0.20;;;20.90;99.90;;;;;;10566262;27;20059;-65
2021/08/03 14:03:13;;;;;;;0.45;0.30;;;20.90;99.90;;;;;;10565610;27;20249;-67
2021/08/03 14:08:15;;;;;;;0.63;0.50;;;20.40;99.90;;;;;;10564296;27;20146;-66
2021/08/03 14:13:16;;;;;;;0.25;0.25;;;20.80;99.90;;;;;;10568390;27;20040;-66
2021/08/03 14:18:20;;;;;;;0.35;0.20;;;20.40;99.90;;;;;;10560121;28;20125;-66
2021/08/03 14:23:22;;;;;;;0.52;0.20;;;20.10;99.90;;;;;;10568599;28;20058;-66
2021/08/03 14:28:23;;;;;;;2.58;0.40;;;20.70;99.90;;;;;;10559099;28;20060;-66
2021/08/03 14:33:25;;;;;;;0.70;0.40;;;20.60;99.90;;;;;;10567992;28;20051;-67
2021/08/03 14:38:27;;;;;;;0.40;0.30;;;20.60;99.90;;;;;;10566479;28;23974;-66
2021/08/03 14:43:28;;;;;;;1.67;0.10;;;20.50;99.90;;;;;;10561827;28;20052;-66
2021/08/03 14:48:30;;;;;;;0.95;0.35;;;20.60;99.90;;;;;;10569782;28;20100;-66
2021/08/03 14:53:34;;;;;;;0.75;0.20;;;20.90;99.90;;;;;;10557884;28;20486;-66
2021/08/03 14:58:36;;;;;;;0.28;0.20;;;21.60;99.90;;;;;;10545412;28;20111;-67
2021/08/03 15:03:38;;;;;;;0.25;0.15;;;21.60;99.90;;;;;;10550373;28;20112;-67
2021/08/03 15:08:40;;;;;;;0.40;0.20;;;21.60;99.70;;;;;;10559858;28;20051;-66
2021/08/03 15:13:41;;;;;;;1.08;0.15;;;21.60;98.30;;;;;;10556637;28;20122;-67
2021/08/03 15:18:43;;;;;;;0.30;0.20;;;21.60;99.90;;;;;;10560060;27;20047;-66
2021/08/03 15:23:45;;;;;;;0.47;0.20;;;21.50;99.60;;;;;;10565741;27;20543;-67
2021/08/03 15:28:47;;;;;;;0.75;0.20;;;21.80;99.90;;;;;;10567646;27;20047;-67
2021/08/03 15:33:48;;;;;;;1.17;0.10;;;21.60;98.80;;;;;;10569467;27;20071;-67
2021/08/03 15:38:50;;;;;;;0.60;0.20;;;21.50;98.40;;;;;;10577463;27;20092;-68
2021/08/03 15:43:52;;;;;;;0.70;0.20;;;21.40;96.60;;;;;;10576669;27;20039;-66
2021/08/03 15:48:53;;;;;;;0.20;0.10;;;21.10;96.70;;;;;;10566715;27;20530;-66
2021/08/03 15:53:56;;;;;;;2.85;0.30;;;21.10;97.20;;;;;;10567886;27;20031;-66
2021/08/03 15:58:57;;;;;;;0.65;0.17;;;21.00;97.10;;;;;;10568582;27;20063;-66
2021/08/03 16:04:00;;;;;;;0.40;0.15;;;20.70;97.40;;;;;;10565564;27;20132;-66
2021/08/03 16:09:02;;;;;;;1.70;0.20;;;20.90;98.40;;;;;;10564701;27;20054;-67
2021/08/03 16:14:04;;;;;;;0.45;0.17;;;20.80;98.30;;;;;;10547926;27;20077;-68
2021/08/03 16:19:06;;;;;;;0.68;0.20;;;20.90;97.60;;;;;;10570398;27;20039;-66
2021/08/03 16:24:07;;;;;;;0.30;0.20;;;21.20;98.20;;;;;;10570088;27;20055;-67
2021/08/03 16:29:09;;;;;;;2.20;0.32;;;21.30;98.70;;;;;;10569952;27;20051;-64
2021/08/03 16:34:11;;;;;;;0.77;0.30;;;21.30;99.90;;;;;;10564897;27;20055;-62
2021/08/03 16:39:13;;;;;;;0.40;0.22;;;21.30;99.90;;;;;;10531967;27;20068;-62
2021/08/03 16:44:18;;;;;;;2.95;0.55;;;20.90;99.90;;;;;;10566385;27;20104;-62
2021/08/03 16:49:23;;;;;;;2.40;0.70;;;19.50;99.90;;;;;;10562118;27;20082;-64
2021/08/03 16:54:42;;;;;;;2.70;0.52;;;18.90;99.90;;;;;;10564223;27;20054;-63
2021/08/03 16:59:44;;;;;;;3.45;0.77;;;18.10;99.90;;;;;;10565743;27;20043;-62
2021/08/03 17:05:04;;;;;;;1.13;0.50;;;17.40;99.90;;;;;;10563740;27;20062;-62
2021/08/03 17:10:13;;;;;;;6.25;1.30;;;17.10;99.90;;;;;;10558163;27;20043;-62
2021/08/03 17:15:15;;;;;;;3.47;1.02;;;17.00;99.90;;;;;;10565579;27;20043;-63
2021/08/03 17:20:18;;;;;;;5.30;0.90;;;17.00;99.90;;;;;;10568142;27;20039;-61
2021/08/03 17:25:22;;;;;;;5.03;1.70;;;16.80;99.90;;;;;;10561255;27;20055;-61
2021/08/03 17:30:24;;;;;;;2.20;0.70;;;16.60;99.90;;;;;;10567847;27;20044;-61
2021/08/03 17:35:26;;;;;;;1.67;0.50;;;16.30;99.90;;;;;;10564534;27;20048;-61
2021/08/03 17:40:28;;;;;;;2.88;0.60;;;16.20;99.90;;;;;;10566701;27;20035;-62
2021/08/03 17:45:30;;;;;;;4.38;1.00;;;16.00;99.90;;;;;;10551233;27;20508;-62
2021/08/03 17:50:32;;;;;;;3.03;0.60;;;15.90;99.90;;;;;;10533989;27;20047;-63
2021/08/03 17:55:39;;;;;;;3.17;0.80;;;15.60;99.90;;;;;;10551559;27;20047;-62
2021/08/03 18:00:43;;;;;;;3.50;0.88;;;15.50;99.90;;;;;;10562338;27;20103;-61
2021/08/03 18:05:46;;;;;;;1.40;0.50;;;15.50;99.90;;;;;;10565908;27;20035;-62
2021/08/03 18:10:54;;;;;;;1.63;0.60;;;15.50;99.90;;;;;;10561003;27;20087;-62
2021/08/03 18:15:57;;;;;;;3.25;1.48;;;15.70;99.90;;;;;;10571021;27;20081;-62
2021/08/03 18:21:03;;;;;;;4.05;1.25;;;15.80;99.90;;;;;;10560237;28;20159;-62
2021/08/03 18:26:09;;;;;;;5.82;1.13;;;15.80;99.90;;;;;;10564820;28;20051;-62
2021/08/03 18:31:23;;;;;;;8.07;1.25;;;16.00;99.90;;;;;;10558837;28;20043;-63
2021/08/03 18:36:31;;;;;;;1.77;0.88;;;16.00;99.90;;;;;;10549336;28;20052;-63
2021/08/03 18:41:48;;;;;;;3.80;1.00;;;15.80;99.90;;;;;;10556304;28;20056;-63
2021/08/03 18:46:52;;;;;;;3.03;0.90;;;15.90;99.90;;;;;;10506767;28;20055;-65
2021/08/03 18:51:54;;;;;;;1.73;0.88;;;15.90;99.90;;;;;;10563802;28;20048;-64
2021/08/03 18:56:56;;;;;;;4.15;1.83;;;16.00;99.90;;;;;;10567417;27;20437;-63
2021/08/03 19:02:06;;;;;;;5.22;1.00;;;15.90;99.90;;;;;;10575966;27;20673;-63
2021/08/03 19:07:27;;;;;;;6.57;1.30;;;16.00;99.90;;;;;;10575585;27;20083;-64
2021/08/03 19:12:30;;;;;;;3.90;1.30;;;15.80;99.90;;;;;;10517420;27;20055;-62
2021/08/03 19:17:56;;;;;;;2.97;1.35;;;15.80;99.90;;;;;;10564677;27;20096;-62
2021/08/03 19:22:59;;;;;;;5.03;1.77;;;15.60;99.90;;;;;;10524464;27;20059;-62
2021/08/03 19:28:01;;;;;;;3.92;1.10;;;15.60;99.90;;;;;;10567931;27;20093;-62
2021/08/03 19:33:05;;;;;;;3.45;1.00;;;15.60;99.90;;;;;;10576489;27;20573;-62
2021/08/03 19:38:07;;;;;;;3.33;1.17;;;15.60;99.90;;;;;;10570989;27;20050;-62
2021/08/03 19:43:08;;;;;;;3.33;1.27;;;15.50;99.90;;;;;;10570869;27;20048;-62
2021/08/03 19:48:11;;;;;;;5.60;1.42;;;15.50;99.90;;;;;;10572976;27;20749;-62
2021/08/03 19:53:13;;;;;;;3.85;1.35;;;15.60;99.90;;;;;;10569323;27;20699;-62
2021/08/03 19:58:17;;;;;;;3.47;1.50;;;15.50;99.90;;;;;;10577663;27;20427;-62
2021/08/03 20:03:19;;;;;;;3.00;1.35;;;15.50;99.90;;;;;;10562152;27;20512;-62
2021/08/03 20:08:22;;;;;;;1.30;1.05;;;15.50;99.90;;;;;;10574548;27;20057;-62
2021/08/03 20:13:23;;;;;;;10.80;1.73;;;15.50;99.90;;;;;;10560826;27;20116;-62
2021/08/03 20:18:28;;;;;;;5.30;1.77;;;15.50;99.90;;;;;;10554815;27;21811;-62
2021/08/03 20:23:30;;;;;;;7.72;2.22;;;15.50;99.90;;;;;;10560755;27;20115;-59
2021/08/03 20:28:44;;;;;;;8.00;3.28;;;15.40;99.90;;;;;;10570751;27;23491;-62
2021/08/03 20:33:48;;;;;;;4.70;1.70;;;15.40;99.90;;;;;;10569951;27;20092;-62
2021/08/03 20:38:58;;;;;;;4.93;1.50;;;15.30;99.90;;;;;;10568628;27;20132;-62
2021/08/03 20:44:00;;;;;;;5.70;1.67;;;15.20;99.90;;;;;;10564249;27;20089;-63
2021/08/03 20:49:02;;;;;;;6.38;1.70;;;15.20;99.90;;;;;;10565245;27;20050;-62
2021/08/03 20:54:04;;;;;;;7.32;2.00;;;15.20;99.90;;;;;;10555817;27;20047;-62
2021/08/03 20:59:05;;;;;;;11.48;3.45;;;15.20;99.90;;;;;;10568042;27;20372;-62
2021/08/03 21:04:10;;;;;;;14.73;4.35;;;15.20;99.90;;;;;;10565201;27;20117;-62
2021/08/03 21:09:11;;;;;;;9.80;3.47;;;15.20;99.90;;;;;;10541508;27;20112;-62
2021/08/03 21:14:13;;;;;;;13.90;3.35;;;15.20;99.90;;;;;;10565255;27;20438;-62
2021/08/03 21:19:15;;;;;;;11.32;3.60;;;15.20;99.90;;;;;;10570726;27;20463;-62
2021/08/03 21:24:16;;;;;;;11.40;3.78;;;15.20;99.90;;;;;;10562857;27;20101;-62
2021/08/03 21:29:19;;;;;;;9.07;3.92;;;15.20;99.90;;;;;;10569797;27;20051;-62
2021/08/03 21:34:21;;;;;;;8.50;4.30;;;15.10;99.90;;;;;;10570111;27;20044;-62
2021/08/03 21:39:23;;;;;;;10.63;4.32;;;15.10;99.90;;;;;;10571353;27;20106;-62
2021/08/03 21:44:24;;;;;;;18.05;5.32;;;15.10;99.90;;;;;;10566589;27;20089;-62
2021/08/03 21:49:26;;;;;;;19.13;6.82;;;15.00;99.90;;;;;;10564699;27;20104;-62
2021/08/03 21:54:28;;;;;;;22.50;7.47;;;15.00;99.90;;;;;;10563166;27;20044;-62
2021/08/03 21:59:29;;;;;;;22.20;7.53;;;15.00;99.90;;;;;;10567462;27;20048;-62
2021/08/03 22:04:31;;;;;;;23.17;6.85;;;14.90;99.90;;;;;;10557734;27;20051;-62
2021/08/03 22:09:33;;;;;;;23.05;6.82;;;14.90;99.90;;;;;;10568734;27;20170;-62
2021/08/03 22:14:35;;;;;;;13.30;5.78;;;14.90;99.90;;;;;;10558859;27;20116;-62
2021/08/03 22:19:36;;;;;;;16.27;5.00;;;14.90;99.90;;;;;;10566143;28;20393;-62
2021/08/03 22:24:38;;;;;;;18.30;5.10;;;14.80;99.90;;;;;;10561812;28;20047;-62
2021/08/03 22:29:40;;;;;;;17.40;5.05;;;14.80;99.90;;;;;;10568652;27;20137;-62
2021/08/03 22:34:41;;;;;;;16.92;4.65;;;14.80;99.90;;;;;;10575685;27;20048;-62
2021/08/03 22:39:43;;;;;;;17.92;4.90;;;14.70;99.90;;;;;;10571305;27;20554;-62
2021/08/03 22:44:45;;;;;;;16.33;4.78;;;14.80;99.90;;;;;;10568107;27;20104;-62
2021/08/03 22:49:46;;;;;;;19.10;5.32;;;14.80;99.90;;;;;;10562308;27;20100;-63
2021/08/03 22:54:48;;;;;;;17.67;6.28;;;14.80;99.90;;;;;;10566602;27;20074;-62
2021/08/03 22:59:49;;;;;;;22.52;5.57;;;14.80;99.90;;;;;;10565025;27;20529;-62
2021/08/03 23:04:51;;;;;;;22.92;5.90;;;14.80;99.90;;;;;;10573099;27;20074;-62
2021/08/03 23:09:53;;;;;;;20.38;6.28;;;14.70;99.90;;;;;;10569789;27;20063;-62
2021/08/03 23:14:54;;;;;;;16.75;5.50;;;14.70;99.90;;;;;;10562492;27;20043;-62
2021/08/03 23:19:56;;;;;;;24.92;5.85;;;14.70;99.90;;;;;;10567324;27;20043;-63
2021/08/03 23:24:58;;;;;;;32.30;5.88;;;14.70;99.90;;;;;;10573343;27;20104;-62
2021/08/03 23:30:00;;;;;;;19.70;5.65;;;14.70;99.90;;;;;;10572626;27;20043;-62
2021/08/03 23:35:01;;;;;;;20.17;6.05;;;14.70;99.90;;;;;;10571938;27;20047;-62
2021/08/03 23:40:03;;;;;;;22.98;5.88;;;14.80;99.90;;;;;;10544868;27;20100;-62
2021/08/03 23:45:06;;;;;;;17.55;6.10;;;14.70;99.90;;;;;;10569031;27;20116;-62
2021/08/03 23:50:08;;;;;;;23.98;6.88;;;14.70;99.90;;;;;;10567756;27;20056;-62
2021/08/03 23:55:10;;;;;;;29.65;8.27;;;14.60;99.90;;;;;;10567970;27;20042;-62
